M I D A S
Marine Information and Data Acquisition System
Tripno 419 of the Zeeleeuw from 2003-01-24 08:17:28 to 2003-01-24 12:49:23
Back to CruiseResearch ActivitiesStationsMapUnderway DataData graphs

EquipmentUnitsComment
TimeDGPSUTC
LatitudeDGPSDM.mWGS84
LongitudeDGPSDM.mWGS84
HeadingGyrodeg 
SOGDGPSknotsSpeed over ground
COGDGPSdegCourse over ground
DepthEcho soundermeters200 kHz
Missing or incorrect values are displayed as -999
Navigation data collected by the RV Zeeleeuw from 2003-01-24 08:17:28 to 2003-01-24 12:49:23
Time Latitude Longitude Heading SOG COG Depth
2003-01-24 08:18:29 51°13.624 2°55.986 113.7 4.1 292.5 23
2003-01-24 08:19:29 51°13.655 2°55.88 117.5 4.6 297.3 23
2003-01-24 08:20:31 51°13.686 2°55.778 108.8 3.5 293.3 23
2003-01-24 08:21:33 51°13.696 2°55.754 66.3 0.8 30.9 26.1
2003-01-24 08:22:31 51°13.724 2°55.763 358.7 2.4 354.5 9.9
2003-01-24 08:23:33 51°13.718 2°55.764 335.8 1.8 163.3 -999
2003-01-24 08:24:33 51°13.727 2°55.744 323 3.2 319.1 29.9
2003-01-24 08:25:32 51°13.805 2°55.654 334.3 6.8 330.7 9.6
2003-01-24 08:26:33 51°13.913 2°55.572 336.7 7.1 334.7 9.3
2003-01-24 08:27:33 51°14.025 2°55.493 337.2 7.2 336.3 9.4
2003-01-24 08:28:33 51°14.131 2°55.413 335.7 7.3 334.1 9.9
2003-01-24 08:29:33 51°14.237 2°55.314 327.2 7.4 325.5 9.7
2003-01-24 08:30:33 51°14.326 2°55.18 309 7.3 308.5 -999
2003-01-24 08:31:33 51°14.395 2°54.979 294.3 10.3 294.3 10
2003-01-24 08:32:33 51°14.42 2°54.663 278.2 12.8 275 9.6
2003-01-24 08:33:33 51°14.436 2°54.319 271.5 12.9 270.4 9
2003-01-24 08:34:33 51°14.358 2°54.009 244.7 12.8 244.8 8.8
2003-01-24 08:35:33 51°14.264 2°53.702 242.7 12.9 243.3 8.9
2003-01-24 08:36:33 51°14.165 2°53.39 244.5 13.3 244 9.2
2003-01-24 08:37:33 51°14.064 2°53.071 242.2 13.5 242 9.4
2003-01-24 08:38:33 51°13.961 2°52.751 243.8 13.6 243.7 9.9
2003-01-24 08:39:33 51°13.857 2°52.431 241.5 13.6 241.1 10.1
2003-01-24 08:40:33 51°13.745 2°52.108 240.8 14.1 241 10.1
2003-01-24 08:41:33 51°13.636 2°51.774 243.7 14.3 243.3 10.2
2003-01-24 08:42:33 51°13.531 2°51.434 244.7 14.3 244.6 10.4
2003-01-24 08:43:33 51°13.43 2°51.088 244.8 14.4 244.7 10.5
2003-01-24 08:44:33 51°13.326 2°50.743 245 14.5 244.8 10.6
2003-01-24 08:45:33 51°13.223 2°50.396 244 14.5 243.9 10.6
2003-01-24 08:46:33 51°13.107 2°50.059 239.2 14.5 239.9 10.8
2003-01-24 08:47:33 51°12.983 2°49.727 240.3 14.6 240.8 10.9
2003-01-24 08:48:33 51°12.861 2°49.393 240.3 14.6 240.2 11
2003-01-24 08:49:33 51°12.739 2°49.06 240.2 14.7 240 11.1
2003-01-24 08:50:33 51°12.616 2°48.726 240 14.6 240.3 11.2
2003-01-24 08:51:33 51°12.493 2°48.392 236.7 14.6 237.4 11.4
2003-01-24 08:52:33 51°12.362 2°48.065 236.2 14.7 237 11.4
2003-01-24 08:53:33 51°12.235 2°47.736 237.7 14.6 238.6 11.5
2003-01-24 08:54:33 51°12.108 2°47.403 238 14.6 238.8 11.6
2003-01-24 08:55:33 51°11.979 2°47.071 237.8 14.7 238.3 11.5
2003-01-24 08:56:33 51°11.85 2°46.74 237.5 14.7 237.6 11.3
2003-01-24 08:57:33 51°11.719 2°46.413 236.8 14.5 237.3 11.2
2003-01-24 08:58:33 51°11.59 2°46.086 238.5 14.7 238.4 10.9
2003-01-24 08:59:33 51°11.461 2°45.759 238.3 14.6 238.4 10.4
2003-01-24 09:00:33 51°11.355 2°45.411 249 14.6 248.6 10.2
2003-01-24 09:01:32 51°11.274 2°45.051 249.8 14.7 249.5 10.3
2003-01-24 09:02:33 51°11.186 2°44.681 249.8 14.7 249.1 10.1
2003-01-24 09:03:33 51°11.112 2°44.31 253.3 14.8 252.7 10.3
2003-01-24 09:04:33 51°11.041 2°43.937 253.8 14.7 253.2 10.4
2003-01-24 09:05:33 51°10.971 2°43.563 254.8 14.8 254 10.4
2003-01-24 09:06:33 51°10.905 2°43.188 254.3 14.7 253.8 10.6
2003-01-24 09:07:33 51°10.839 2°42.812 256.2 14.9 255.4 10.7
2003-01-24 09:08:33 51°10.774 2°42.435 254 14.8 253.4 10.7
2003-01-24 09:09:33 51°10.708 2°42.056 256.3 14.8 256 10.8
2003-01-24 09:10:33 51°10.653 2°41.676 257.2 14.7 256.4 10.9
2003-01-24 09:11:33 51°10.598 2°41.296 258.2 14.6 256.9 11
2003-01-24 09:12:33 51°10.548 2°40.916 257.8 14.7 257.7 11.1
2003-01-24 09:13:33 51°10.491 2°40.539 256.2 14.7 256.1 11.4
2003-01-24 09:14:33 51°10.437 2°40.16 257.7 14.7 257.6 11.9
2003-01-24 09:15:33 51°10.383 2°39.779 256.7 14.7 256.7 12.4
2003-01-24 09:16:33 51°10.327 2°39.399 256.2 14.7 255.7 13.3
2003-01-24 09:17:33 51°10.27 2°39.019 257.3 14.8 256.8 13.8
2003-01-24 09:18:33 51°10.214 2°38.637 257 14.8 256.4 14.4
2003-01-24 09:19:33 51°10.152 2°38.258 256 14.7 255.9 14.7
2003-01-24 09:20:33 51°10.092 2°37.876 256.8 14.8 256.3 15.5
2003-01-24 09:21:33 51°10.034 2°37.495 256.8 14.8 256.3 16
2003-01-24 09:22:33 51°9.973 2°37.116 256.3 14.7 256.1 15.9
2003-01-24 09:23:33 51°9.933 2°36.75 268.8 13.1 267.1 16.5
2003-01-24 09:24:33 51°9.953 2°36.409 278.8 12.9 276.6 16.4
2003-01-24 09:25:33 51°10.014 2°36.079 299.8 13.7 295.4 16.4
2003-01-24 09:26:33 51°10.169 2°35.814 333.3 13.9 327.7 9.9
2003-01-24 09:27:33 51°10.384 2°35.775 19.2 13.4 14 9.6
2003-01-24 09:28:33 51°10.586 2°35.928 32.3 13.4 28.5 9.1
2003-01-24 09:29:33 51°10.789 2°36.087 31 13.7 26.4 9.4
2003-01-24 09:30:33 51°10.991 2°36.258 32.8 13.7 28 10
2003-01-24 09:31:33 51°11.192 2°36.429 32.2 13.6 27.6 10.1
2003-01-24 09:32:33 51°11.392 2°36.595 31.7 13.6 27.1 9.9
2003-01-24 09:33:33 51°11.586 2°36.773 36.3 13.5 31.5 10
2003-01-24 09:34:33 51°11.777 2°36.959 36.5 13.4 31.9 10
2003-01-24 09:35:33 51°11.97 2°37.141 35.7 13.5 30.3 9.9
2003-01-24 09:36:33 51°12.177 2°37.28 27.3 13.5 21.8 9.7
2003-01-24 09:37:33 51°12.386 2°37.419 28.3 13.6 22.7 9.7
2003-01-24 09:38:33 51°12.594 2°37.561 29 13.6 23.9 10.3
2003-01-24 09:39:33 51°12.803 2°37.703 29.3 13.7 23.4 10.8
2003-01-24 09:40:33 51°13.001 2°37.876 38.7 13.5 34 11.3
2003-01-24 09:41:33 51°13.191 2°38.07 37.3 13.6 32.2 12
2003-01-24 09:42:33 51°13.38 2°38.27 38.5 13.6 33.4 12.1
2003-01-24 09:43:33 51°13.569 2°38.47 39.5 13.6 34 12.1
2003-01-24 09:44:33 51°13.757 2°38.667 39.7 13.5 34.2 11.6
2003-01-24 09:45:33 51°13.953 2°38.837 19.8 13.4 13.5 11
2003-01-24 09:46:33 51°14.138 2°38.665 303.7 14.2 300 12.5
2003-01-24 09:47:33 51°14.115 2°38.301 242.2 14.4 242.9 16
2003-01-24 09:48:33 51°13.999 2°37.958 240.5 14.9 241.3 16.2
2003-01-24 09:49:33 51°13.884 2°37.61 239.8 14.9 240.5 16.7
2003-01-24 09:50:33 51°13.774 2°37.256 245 14.8 245.5 16.9
2003-01-24 09:51:33 51°13.671 2°36.897 244.5 14.7 245 17.1
2003-01-24 09:52:33 51°13.566 2°36.539 244.7 14.8 245 16.1
2003-01-24 09:53:33 51°13.461 2°36.181 246.2 14.7 245.8 15.6
2003-01-24 09:54:33 51°13.359 2°35.821 245.8 14.9 245.5 15.7
2003-01-24 09:55:33 51°13.255 2°35.464 245.3 14.8 244.9 11.6
2003-01-24 09:56:33 51°13.148 2°35.109 244.8 14.9 244.7 11.6
2003-01-24 09:57:33 51°13.039 2°34.754 245.7 14.9 244.7 15.9
2003-01-24 09:58:33 51°12.933 2°34.398 245.8 14.8 245 15.6
2003-01-24 09:59:33 51°12.826 2°34.044 245.7 14.9 244.9 15.1
2003-01-24 10:00:33 51°12.721 2°33.686 246 14.8 245.3 14.3
2003-01-24 10:01:33 51°12.612 2°33.328 245.5 15.1 244.2 13.7
2003-01-24 10:02:33 51°12.504 2°32.973 245.2 14.9 244 13
2003-01-24 10:03:33 51°12.394 2°32.618 246.5 15 244.8 14.2
2003-01-24 10:04:33 51°12.285 2°32.263 245.7 14.9 244.2 15.1
2003-01-24 10:05:33 51°12.177 2°31.907 246.3 15.1 244.3 16.1
2003-01-24 10:06:33 51°12.069 2°31.552 246 14.9 243.9 17.5
2003-01-24 10:07:33 51°11.96 2°31.197 246.3 14.9 244.6 18.9
2003-01-24 10:08:33 51°11.853 2°30.841 246.2 14.9 244.3 18.9
2003-01-24 10:09:33 51°11.744 2°30.486 246 14.9 244.3 19.6
2003-01-24 10:10:33 51°11.635 2°30.127 245.2 15.1 243.9 19.5
2003-01-24 10:11:33 51°11.525 2°29.768 245.5 15.1 244.2 19.4
2003-01-24 10:12:33 51°11.418 2°29.405 246.2 15.2 245.4 19.8
2003-01-24 10:13:33 51°11.313 2°29.037 245.7 15.3 245.7 19.4
2003-01-24 10:14:33 51°11.238 2°28.653 261 15.4 258.9 19.7
2003-01-24 10:15:33 51°11.212 2°28.252 266.2 15.4 264.3 19.9
2003-01-24 10:16:33 51°11.186 2°27.842 265.5 15.5 263.8 20
2003-01-24 10:17:33 51°11.166 2°27.431 268.3 15.5 266.9 21
2003-01-24 10:18:33 51°11.15 2°27.02 268.8 15.5 266.8 20.3
2003-01-24 10:19:33 51°11.134 2°26.609 268.2 15.6 266 18.7
2003-01-24 10:20:33 51°11.116 2°26.197 267.8 15.5 265.9 14.9
2003-01-24 10:21:33 51°11.098 2°25.788 267.8 15.4 266.6 11.9
2003-01-24 10:22:33 51°11.14 2°25.395 304.7 15.3 298.3 14.5
2003-01-24 10:23:33 51°11.337 2°25.211 2 13.5 354 20.8
2003-01-24 10:24:33 51°11.541 2°25.267 34.8 10.2 27.5 22.1
2003-01-24 10:25:33 51°11.608 2°25.419 49.7 4.6 47.2 22.6
2003-01-24 10:26:33 51°11.644 2°25.439 17.7 1.7 357.2 23.7
2003-01-24 10:27:33 51°11.668 2°25.43 11.7 1.4 341.2 23.9
2003-01-24 10:28:33 51°11.691 2°25.421 22.3 1.3 352 23.4
2003-01-24 10:29:33 51°11.708 2°25.424 49.7 0.9 22.5 23.5
2003-01-24 10:30:33 51°11.715 2°25.438 67.7 0.7 60.8 23.5
2003-01-24 10:31:33 51°11.724 2°25.45 44.8 0.7 19 23.2
2003-01-24 10:32:33 51°11.737 2°25.448 19.8 0.8 339.9 22.9
2003-01-24 10:33:33 51°11.748 2°25.434 0.7 0.9 311.5 22.8
2003-01-24 10:34:33 51°11.755 2°25.413 344.3 0.9 289.1 22.6
2003-01-24 10:35:33 51°11.759 2°25.388 331.2 1 279 22.6
2003-01-24 10:36:33 51°11.76 2°25.362 321.5 1 269.4 22.6
2003-01-24 10:37:33 51°11.758 2°25.334 311 1 263.4 22.3
2003-01-24 10:38:33 51°11.754 2°25.308 303.8 1 257.4 22.9
2003-01-24 10:39:33 51°11.751 2°25.282 299.2 1 255 22.9
2003-01-24 10:40:33 51°11.747 2°25.256 296.7 1 257.6 23.1
2003-01-24 10:41:33 51°11.742 2°25.231 294.8 1 251.9 23
2003-01-24 10:42:33 51°11.738 2°25.206 293.5 1.1 258.6 23
2003-01-24 10:43:33 51°11.741 2°25.147 292.2 3.2 278.8 22.6
2003-01-24 10:44:33 51°11.748 2°25.059 296.5 3.4 279.2 22.4
2003-01-24 10:45:33 51°11.769 2°24.989 338.2 2.6 310.1 22.6
2003-01-24 10:46:33 51°11.799 2°24.963 20 1.7 351 23.4
2003-01-24 10:47:33 51°11.822 2°24.975 39.7 1.6 27.6 23.5
2003-01-24 10:48:33 51°11.854 2°25.002 35 3.9 30.1 22.6
2003-01-24 10:49:33 51°11.993 2°25.136 37.3 12 34 23.3
2003-01-24 10:50:33 51°12.15 2°25.354 46.2 12.7 44.6 23.5
2003-01-24 10:51:33 51°12.305 2°25.581 39.2 12.8 36.8 22.9
2003-01-24 10:52:33 51°12.47 2°25.794 44.5 12.8 42.3 23.3
2003-01-24 10:53:33 51°12.624 2°26.025 43.8 12.6 42.5 23.1
2003-01-24 10:54:33 51°12.777 2°26.258 46.2 12.8 44.9 23.2
2003-01-24 10:55:33 51°12.925 2°26.502 47.2 12.7 46.3 22.9
2003-01-24 10:56:33 51°13.073 2°26.745 47.2 12.8 45.7 23.5
2003-01-24 10:57:33 51°13.22 2°26.994 50.2 12.9 48.9 23.4
2003-01-24 10:58:33 51°13.36 2°27.252 49.7 13 48.6 23.5
2003-01-24 10:59:33 51°13.502 2°27.507 49.7 12.9 48.2 23.7
2003-01-24 11:00:33 51°13.645 2°27.763 50.2 12.9 49.1 23.5
2003-01-24 11:01:33 51°13.788 2°28.02 50.7 13.1 49.7 23.3
2003-01-24 11:02:33 51°13.94 2°28.264 46.7 13 44.6 23.8
2003-01-24 11:03:33 51°14.091 2°28.513 48 13 46.5 23.5
2003-01-24 11:04:33 51°14.241 2°28.765 47.3 13.1 45.8 23.9
2003-01-24 11:05:33 51°14.394 2°29.014 47.5 13.2 45.7 24.3
2003-01-24 11:06:33 51°14.547 2°29.265 46.7 13.1 44.9 24.3
2003-01-24 11:07:33 51°14.699 2°29.516 47.7 13.2 45.8 24.3
2003-01-24 11:08:33 51°14.854 2°29.765 47 13.2 45.3 23.9
2003-01-24 11:09:33 51°15.007 2°30.016 47.8 13.2 45.4 24.7
2003-01-24 11:10:33 51°15.161 2°30.267 47.5 13.3 45.2 24.9
2003-01-24 11:11:37 51°15.327 2°30.53 47 13.2 44.3 24.6
2003-01-24 11:12:38 51°15.486 2°30.779 47.2 13.3 44.7 25.1
2003-01-24 11:13:38 51°15.642 2°31.026 48 13.2 44.7 25.1
2003-01-24 11:14:38 51°15.799 2°31.271 47.5 13.2 44.3 25
2003-01-24 11:15:38 51°15.957 2°31.513 47.7 13.2 43.8 24.9
2003-01-24 11:16:37 51°16.113 2°31.751 47 13.1 43.1 24.7
2003-01-24 11:17:37 51°16.273 2°31.99 45.5 13.3 41.9 24.5
2003-01-24 11:18:37 51°16.435 2°32.226 46.7 13.2 42.4 24.8
2003-01-24 11:19:37 51°16.597 2°32.463 46 13.2 41.8 23.4
2003-01-24 11:20:37 51°16.761 2°32.698 46.7 13.3 42.2 22.2
2003-01-24 11:21:37 51°16.924 2°32.934 46.3 13.2 42 22.1
2003-01-24 11:22:37 51°17.086 2°33.172 46.3 13.3 42.1 22.3
2003-01-24 11:23:43 51°17.265 2°33.434 46.8 13.2 42.7 20.9
2003-01-24 11:24:43 51°17.427 2°33.669 46.5 13.2 41.8 22.7
2003-01-24 11:25:43 51°17.593 2°33.9 45.8 13.2 40.9 23.6
2003-01-24 11:26:43 51°17.761 2°34.131 48.3 13.1 41.9 26.3
2003-01-24 11:27:43 51°17.912 2°34.376 51.7 12.9 46.6 26.2
2003-01-24 11:28:43 51°18.062 2°34.623 52.2 12.9 45.6 25.4
2003-01-24 11:29:43 51°18.203 2°34.881 55.2 12.9 50.2 26.1
2003-01-24 11:30:43 51°18.342 2°35.141 54.5 12.9 49.6 23.1
2003-01-24 11:31:43 51°18.48 2°35.401 55 13 49.8 23
2003-01-24 11:32:43 51°18.62 2°35.661 54.5 13 49.1 20.8
2003-01-24 11:33:43 51°18.759 2°35.923 55.2 12.9 49.9 19.2
2003-01-24 11:34:43 51°18.896 2°36.182 54.2 12.8 49.9 17.5
2003-01-24 11:35:43 51°19.035 2°36.438 53.8 12.7 48.8 21.1
2003-01-24 11:36:43 51°19.169 2°36.702 56.7 12.8 51.6 18.4
2003-01-24 11:37:43 51°19.3 2°36.969 57.7 12.8 52.6 18.1
2003-01-24 11:38:47 51°19.437 2°37.255 56.3 12.7 51.8 18.2
2003-01-24 11:39:48 51°19.571 2°37.521 57.2 12.7 51.9 18.5
2003-01-24 11:40:47 51°19.697 2°37.777 57 12.5 51.8 20.2
2003-01-24 11:41:48 51°19.829 2°38.04 57 12.4 51.3 19.8
2003-01-24 11:42:47 51°19.956 2°38.293 56.5 12.4 51.3 21.7
2003-01-24 11:43:48 51°20.088 2°38.558 56.2 12.7 51.5 22.3
2003-01-24 11:44:48 51°20.218 2°38.818 56.2 12.5 51.9 22.8
2003-01-24 11:45:48 51°20.348 2°39.079 55.8 12.6 50.6 23.1
2003-01-24 11:46:48 51°20.479 2°39.339 56.7 12.6 51.6 23
2003-01-24 11:47:48 51°20.598 2°39.61 68.3 12.4 64.3 24
2003-01-24 11:48:49 51°20.607 2°39.947 95.8 12.8 95.6 23.8
2003-01-24 11:49:48 51°20.58 2°40.279 96.2 12.8 95.5 25.6
2003-01-24 11:50:48 51°20.544 2°40.615 100.7 12.9 100.9 25.8
2003-01-24 11:51:47 51°20.505 2°40.943 100.7 12.6 100.1 26.6
2003-01-24 11:52:47 51°20.465 2°41.274 101.3 12.7 101.5 20.4
2003-01-24 11:53:48 51°20.424 2°41.608 99.5 12.6 100.3 19.5
2003-01-24 11:54:48 51°20.39 2°41.938 98.7 12.6 99.1 15.4
2003-01-24 11:55:47 51°20.353 2°42.263 99 12.5 100.7 17.7
2003-01-24 11:56:47 51°20.311 2°42.596 99.5 12.9 101.8 21.7
2003-01-24 11:57:48 51°20.272 2°42.939 98.7 12.8 100.1 23.1
2003-01-24 11:58:47 51°20.233 2°43.266 99.8 12.7 101.5 24.8
2003-01-24 11:59:48 51°20.191 2°43.605 98.8 12.8 100.8 24.9
2003-01-24 12:00:47 51°20.158 2°43.934 98.3 12.7 99.4 23.4
2003-01-24 12:01:48 51°20.125 2°44.274 97.5 12.7 98.9 23.7
2003-01-24 12:02:47 51°20.092 2°44.602 97.5 12.7 99 22.9
2003-01-24 12:03:48 51°20.061 2°44.94 97.5 12.6 99.3 22
2003-01-24 12:04:47 51°20.03 2°45.267 97.3 12.7 98.8 20.3
2003-01-24 12:05:48 51°20 2°45.606 97.7 12.7 98.8 13.4
2003-01-24 12:06:48 51°19.968 2°45.935 97.2 12.6 99.2 10.3
2003-01-24 12:07:47 51°19.935 2°46.258 97.3 12.5 98.7 13.6
2003-01-24 12:08:47 51°19.896 2°46.589 100.8 12.8 103.8 16.4
2003-01-24 12:09:47 51°19.819 2°46.906 116.3 13 120.5 18.6
2003-01-24 12:10:48 51°19.708 2°47.208 114.2 12.9 119 20.1
2003-01-24 12:11:47 51°19.602 2°47.502 114.3 13.1 120 20.3
2003-01-24 12:12:47 51°19.484 2°47.793 118.8 13.1 125.2 20.1
2003-01-24 12:13:47 51°19.357 2°48.077 119.2 13.1 125.8 18
2003-01-24 12:14:48 51°19.23 2°48.368 117 13.1 124.6 16
2003-01-24 12:15:47 51°19.109 2°48.65 116.8 13.3 125.2 13.6
2003-01-24 12:16:48 51°18.983 2°48.943 119 13 124.1 11.1
2003-01-24 12:17:48 51°18.855 2°49.228 119.2 13.3 125.2 9.9
2003-01-24 12:18:48 51°18.729 2°49.512 121.2 12.6 127.3 9.1
2003-01-24 12:19:49 51°18.596 2°49.809 117.8 13.5 125.9 11.7
2003-01-24 12:20:48 51°18.474 2°50.101 116.7 13.3 124 12.8
2003-01-24 12:21:48 51°18.351 2°50.396 115.8 13.3 123.7 12.7
2003-01-24 12:22:48 51°18.202 2°50.669 125.8 13.7 133.3 11.9
2003-01-24 12:23:48 51°18.048 2°50.94 124.3 13.9 131.1 11
2003-01-24 12:24:48 51°17.905 2°51.222 124 13.5 128.9 9.5
2003-01-24 12:25:48 51°17.765 2°51.505 122.2 13.6 127.9 8.6
2003-01-24 12:26:48 51°17.621 2°51.786 125.2 13.7 131.6 8.6
2003-01-24 12:27:48 51°17.46 2°52.054 128.2 14.1 135.1 9.1
2003-01-24 12:28:48 51°17.272 2°52.278 142.7 14.1 147.7 9.1
2003-01-24 12:29:48 51°17.064 2°52.46 148.3 14.3 152.4 8.2
2003-01-24 12:30:48 51°16.878 2°52.686 132.2 13.9 137.8 8.1
2003-01-24 12:31:48 51°16.678 2°52.877 148.2 14.3 151.7 9.8
2003-01-24 12:32:48 51°16.465 2°53.065 147.5 14.6 151.6 10.8
2003-01-24 12:33:48 51°16.257 2°53.248 146.5 14.4 151.4 11
2003-01-24 12:34:48 51°16.052 2°53.427 145.7 14 151.9 10.6
2003-01-24 12:35:48 51°15.848 2°53.604 144.5 14 150.9 10.1
2003-01-24 12:36:48 51°15.647 2°53.78 143.3 13.8 149.4 9.4
2003-01-24 12:37:48 51°15.448 2°53.951 146.2 13.5 151.6 8.5
2003-01-24 12:38:48 51°15.253 2°54.113 145.3 13.1 151.4 7.8
2003-01-24 12:39:48 51°15.066 2°54.275 147.7 12.7 152.2 7.2
2003-01-24 12:40:48 51°14.881 2°54.433 147 12.6 150.6 7.8
2003-01-24 12:41:48 51°14.692 2°54.594 143.5 13 148.9 8.2
2003-01-24 12:42:48 51°14.52 2°54.774 135.7 11.8 140.4 8.4
2003-01-24 12:43:48 51°14.402 2°54.99 122 10.1 126.4 9
2003-01-24 12:44:49 51°14.316 2°55.197 125 8.5 123.9 9.4
2003-01-24 12:45:52 51°14.233 2°55.343 146.3 6.2 145.1 8.9
2003-01-24 12:46:52 51°14.146 2°55.413 157 5.7 157.2 24.7
2003-01-24 12:47:51 51°14.057 2°55.472 156.5 6.3 157.4 8.6
2003-01-24 12:48:52 51°13.956 2°55.544 155.5 6.6 155.8 26.4